Newry, Maine
Current Conditions -  °F | °C
As of 1:52 PM on Saturday 25 Oct 2014 (Local Time) from KBML Reporting Station
Clear Clear  
Wind Chill: 58°   Ceiling: Unl
Heat Index: 58°   Visibility: 10mi
Dew Point: 37°   Wind: 5mph
Humidity: 46%   Direction: NA
Pressure: 29.6"   Gusts: NA
Location:  44.49°N, 70.79°W
Report Text: KBML 251752Z AUTO VRB04KT 10SM CLR 14/03 A2960 RMK AO2 SLP028 T01440028 10150 20000 58026
Loading
Personal Weather Stations






























Interactive Weather Map
Tropical Storm Tracking
New forecast layout! Learn more

10-Day Weather Forecast

Advertisements
Track Severe Weather on mobile